createdAt,value
2019-02-17T00:00:34.213Z,30.83
2019-02-17T00:03:01.578Z,30.23
2019-02-17T00:05:29.013Z,24.17
2019-02-17T00:07:56.394Z,25.83
2019-02-17T00:10:24.053Z,25.43
2019-02-17T00:12:51.427Z,26.83
2019-02-17T00:15:18.878Z,27.27
2019-02-17T00:17:46.318Z,25.20
2019-02-17T00:20:13.713Z,25.70
2019-02-17T00:22:41.118Z,22.30
2019-02-17T00:25:08.494Z,23.20
2019-02-17T00:27:35.896Z,26.13
2019-02-17T00:30:03.508Z,25.70
2019-02-17T00:32:30.957Z,25.00
2019-02-17T00:34:58.459Z,22.57
2019-02-17T00:37:25.863Z,24.03
2019-02-17T00:39:53.273Z,26.40
2019-02-17T00:42:20.748Z,26.47
2019-02-17T00:44:48.143Z,25.47
2019-02-17T00:47:15.561Z,30.80
2019-02-17T00:49:43.421Z,24.60
2019-02-17T00:52:10.856Z,28.63
2019-02-17T00:54:38.221Z,27.67
2019-02-17T00:57:05.641Z,28.87
2019-02-17T00:59:33.027Z,26.17
2019-02-17T01:02:00.455Z,24.27
2019-02-17T01:04:27.965Z,22.83
2019-02-17T01:06:55.385Z,32.03
2019-02-17T01:09:22.780Z,23.83
2019-02-17T01:11:50.226Z,27.00
2019-02-17T01:14:17.610Z,29.70
2019-02-17T01:16:45.144Z,24.70
2019-02-17T01:19:12.585Z,27.67
2019-02-17T01:21:39.995Z,25.63
2019-02-17T01:24:07.577Z,24.90
2019-02-17T01:26:36.806Z,24.17
2019-02-17T01:29:04.186Z,24.90
2019-02-17T01:31:31.733Z,24.13
2019-02-17T01:34:07.989Z,24.53
2019-02-17T01:36:35.419Z,27.13
2019-02-17T01:39:04.124Z,23.93
2019-02-17T01:41:31.508Z,26.53
2019-02-17T01:43:58.933Z,25.43
2019-02-17T01:46:26.318Z,24.50
2019-02-17T01:48:53.813Z,27.83
2019-02-17T01:51:21.214Z,25.73
2019-02-17T01:53:48.638Z,22.90
2019-02-17T01:56:16.058Z,26.87
2019-02-17T01:58:43.479Z,28.50
2019-02-17T02:01:10.852Z,26.57
2019-02-17T02:03:38.277Z,27.83
2019-02-17T02:06:05.692Z,35.10
2019-02-17T02:08:33.131Z,29.90
2019-02-17T02:11:00.529Z,27.90
2019-02-17T02:13:27.961Z,27.63
2019-02-17T02:15:55.547Z,29.33
2019-02-17T02:18:23.009Z,27.77
2019-02-17T02:20:50.363Z,24.20
2019-02-17T02:23:17.802Z,28.10
2019-02-17T02:25:45.201Z,27.03
2019-02-17T02:28:12.631Z,28.87
2019-02-17T02:30:40.480Z,26.60
2019-02-17T02:33:07.906Z,26.90
2019-02-17T02:35:35.316Z,25.50
2019-02-17T02:38:02.743Z,28.83
2019-02-17T02:40:30.123Z,25.13
2019-02-17T02:42:57.550Z,23.97
2019-02-17T02:45:24.939Z,27.37
2019-02-17T02:47:52.366Z,27.67
2019-02-17T02:50:19.780Z,23.23
2019-02-17T02:52:47.326Z,25.20
2019-02-17T02:55:14.745Z,25.53
2019-02-17T02:57:42.117Z,26.07
2019-02-17T03:00:10.079Z,23.97
2019-02-17T03:02:37.467Z,26.87
2019-02-17T03:05:06.550Z,24.47
2019-02-17T03:07:33.930Z,23.93
2019-02-17T03:10:01.375Z,24.63
2019-02-17T03:12:28.775Z,26.50
2019-02-17T03:14:56.205Z,25.77
2019-02-17T03:17:23.596Z,23.63
2019-02-17T03:19:51.045Z,25.27
2019-02-17T03:22:18.420Z,26.27
2019-02-17T03:24:45.889Z,26.63
2019-02-17T03:27:13.286Z,26.70
2019-02-17T03:29:40.694Z,29.33
2019-02-17T03:32:08.068Z,29.60
2019-02-17T03:34:35.492Z,27.43
2019-02-17T03:37:02.872Z,25.00
2019-02-17T03:39:30.306Z,27.90
2019-02-17T03:41:57.690Z,28.23
2019-02-17T03:44:25.171Z,26.07
2019-02-17T03:46:52.556Z,26.07
2019-02-17T03:49:19.991Z,26.30
2019-02-17T03:51:47.382Z,28.27
2019-02-17T03:54:14.811Z,27.90
2019-02-17T03:56:42.190Z,27.83
2019-02-17T03:59:09.619Z,24.80
2019-02-17T04:01:36.990Z,26.63
2019-02-17T04:04:04.420Z,25.97
2019-02-17T04:06:31.815Z,25.53
2019-02-17T04:08:59.259Z,26.47
2019-02-17T04:11:26.662Z,26.50
2019-02-17T04:13:54.069Z,23.70
2019-02-17T04:16:21.459Z,26.57
2019-02-17T04:18:48.959Z,22.50
2019-02-17T04:21:16.352Z,25.00
2019-02-17T04:23:43.730Z,26.50
2019-02-17T04:26:11.185Z,26.47
2019-02-17T04:28:38.655Z,23.23
2019-02-17T04:31:06.101Z,23.00
2019-02-17T04:33:33.480Z,22.70
2019-02-17T04:36:00.905Z,20.50
2019-02-17T04:38:28.317Z,23.70
2019-02-17T04:40:55.760Z,24.47
2019-02-17T04:43:23.145Z,25.20
2019-02-17T04:45:50.556Z,23.50
2019-02-17T04:48:17.936Z,22.83
2019-02-17T04:50:45.401Z,24.03
2019-02-17T04:53:12.795Z,23.00
2019-02-17T04:55:40.219Z,25.63
2019-02-17T04:58:07.625Z,21.97
2019-02-17T05:00:40.387Z,24.90
2019-02-17T05:03:04.364Z,26.63
2019-02-17T05:05:31.852Z,25.40
2019-02-17T05:07:59.263Z,22.07
2019-02-17T05:10:26.787Z,22.63
2019-02-17T05:12:54.165Z,22.10
2019-02-17T05:15:21.620Z,25.17
2019-02-17T05:17:49.017Z,26.67
2019-02-17T05:20:16.497Z,19.73
2019-02-17T05:22:43.871Z,20.50
2019-02-17T05:25:11.330Z,21.20
2019-02-17T05:27:38.749Z,20.67
2019-02-17T05:30:07.486Z,19.27
2019-02-17T05:32:34.860Z,20.20
2019-02-17T05:35:02.290Z,20.17
2019-02-17T05:37:29.720Z,22.33
2019-02-17T05:39:57.084Z,22.17
2019-02-17T05:42:24.526Z,20.07
2019-02-17T05:44:51.916Z,19.07
2019-02-17T05:47:19.329Z,19.20
2019-02-17T05:49:46.733Z,23.73
2019-02-17T05:52:14.165Z,21.07
2019-02-17T05:54:41.543Z,23.13
2019-02-17T05:57:08.980Z,20.30
2019-02-17T05:59:36.356Z,24.30
2019-02-17T06:02:03.785Z,22.83
2019-02-17T06:04:31.170Z,24.40
2019-02-17T06:06:58.621Z,24.03
2019-02-17T06:09:25.981Z,21.80
2019-02-17T06:11:53.412Z,19.27
2019-02-17T06:14:20.786Z,23.37
2019-02-17T06:16:48.260Z,20.97
2019-02-17T06:19:17.844Z,18.23
2019-02-17T06:21:45.400Z,22.23
2019-02-17T06:24:12.786Z,22.63
2019-02-17T06:26:40.241Z,21.00
2019-02-17T06:29:07.606Z,20.97
2019-02-17T06:31:38.186Z,21.77
2019-02-17T06:34:07.273Z,23.13
2019-02-17T06:36:37.556Z,20.40
2019-02-17T06:39:05.631Z,25.43
2019-02-17T06:41:33.066Z,21.83
2019-02-17T06:44:00.461Z,29.37
2019-02-17T06:46:31.827Z,26.93
2019-02-17T06:48:59.181Z,22.07
2019-02-17T06:51:26.625Z,26.83
2019-02-17T06:53:54.001Z,29.40
2019-02-17T06:56:32.321Z,21.43
2019-02-17T06:58:59.700Z,18.30
2019-02-17T07:01:44.676Z,25.43
2019-02-17T07:04:12.452Z,18.10
2019-02-17T07:06:50.052Z,20.93
2019-02-17T07:09:42.900Z,22.00
2019-02-17T07:12:25.732Z,18.83
2019-02-17T07:15:16.621Z,18.00
2019-02-17T07:18:13.654Z,17.33
2019-02-17T07:21:16.040Z,15.37
2019-02-17T07:27:58.938Z,19.33
2019-02-17T07:34:26.747Z,20.10
2019-02-17T07:37:07.196Z,21.47
2019-02-17T07:39:42.441Z,19.83
2019-02-17T07:42:43.270Z,20.27
2019-02-17T07:45:12.420Z,22.33
2019-02-17T07:48:19.191Z,18.77
2019-02-17T07:51:09.122Z,20.50
2019-02-17T07:53:36.581Z,23.60
2019-02-17T07:56:03.977Z,22.50
2019-02-17T07:58:31.396Z,21.53
2019-02-17T08:00:58.811Z,21.43
2019-02-17T08:03:26.258Z,21.63
2019-02-17T08:05:53.691Z,22.13
2019-02-17T08:08:21.177Z,22.77
2019-02-17T08:10:48.561Z,23.13
2019-02-17T08:13:15.992Z,20.80
2019-02-17T08:15:43.432Z,21.83
2019-02-17T08:18:10.856Z,23.43
2019-02-17T08:20:38.312Z,24.23
2019-02-17T08:23:05.762Z,21.10
2019-02-17T08:25:33.138Z,25.57
2019-02-17T08:28:00.524Z,22.37
2019-02-17T08:30:27.946Z,25.50
2019-02-17T08:32:55.306Z,31.93
2019-02-17T08:35:22.862Z,22.80
2019-02-17T08:37:50.264Z,26.77
2019-02-17T08:40:20.691Z,30.17
2019-02-17T08:42:48.077Z,30.93
2019-02-17T08:45:15.496Z,28.77
2019-02-17T08:47:42.931Z,28.73
2019-02-17T08:50:10.546Z,28.07
2019-02-17T08:52:38.007Z,29.97
2019-02-17T08:55:06.579Z,25.87
2019-02-17T08:57:33.943Z,29.77
2019-02-17T09:00:01.406Z,27.57
2019-02-17T09:02:28.771Z,26.40
2019-02-17T09:04:56.216Z,28.40
2019-02-17T09:07:23.598Z,27.67
2019-02-17T09:09:52.644Z,31.37
2019-02-17T09:12:20.037Z,28.07
2019-02-17T09:14:47.592Z,33.60
2019-02-17T09:17:14.996Z,30.13
2019-02-17T09:20:10.095Z,26.60
2019-02-17T09:22:37.571Z,28.27
2019-02-17T09:25:06.107Z,31.70
2019-02-17T09:27:33.530Z,29.33
2019-02-17T09:30:01.303Z,30.53
2019-02-17T09:32:28.722Z,27.23
2019-02-17T09:34:56.196Z,28.27
2019-02-17T09:37:23.601Z,31.37
2019-02-17T09:39:51.037Z,29.57
2019-02-17T09:42:18.428Z,29.17
2019-02-17T09:44:49.081Z,29.37
2019-02-17T09:47:16.466Z,29.97
2019-02-17T09:49:44.420Z,30.10
2019-02-17T09:52:11.808Z,31.57
2019-02-17T09:54:39.255Z,27.57
2019-02-17T09:57:06.646Z,29.73
2019-02-17T09:59:34.098Z,27.60
2019-02-17T10:02:01.519Z,29.40
2019-02-17T10:04:28.897Z,29.57
2019-02-17T10:06:56.366Z,28.37
2019-02-17T10:09:23.792Z,35.30
2019-02-17T10:11:51.266Z,29.70
2019-02-17T10:14:18.664Z,34.97
2019-02-17T10:16:46.091Z,29.00
2019-02-17T10:19:13.522Z,28.77
2019-02-17T10:21:40.986Z,29.13
2019-02-17T10:24:08.348Z,27.33
2019-02-17T10:26:35.797Z,29.80
2019-02-17T10:29:03.171Z,29.83
2019-02-17T10:31:30.586Z,29.73
2019-02-17T10:33:57.971Z,30.60
2019-02-17T10:36:25.407Z,25.77
2019-02-17T10:38:52.921Z,26.83
2019-02-17T10:41:20.361Z,26.13
2019-02-17T10:43:50.627Z,27.07
2019-02-17T10:46:18.076Z,26.90
2019-02-17T10:48:45.456Z,23.83
2019-02-17T10:51:12.881Z,23.40
2019-02-17T10:53:40.290Z,27.37
2019-02-17T10:56:07.776Z,26.00
2019-02-17T10:58:35.336Z,27.60
2019-02-17T11:01:02.903Z,27.13
2019-02-17T11:03:30.432Z,26.47
2019-02-17T11:05:57.989Z,25.63
2019-02-17T11:08:25.851Z,25.23
2019-02-17T11:10:53.306Z,24.87
2019-02-17T11:13:27.380Z,24.67
2019-02-17T11:15:54.892Z,26.20
2019-02-17T11:18:22.476Z,25.10
2019-02-17T11:20:50.211Z,25.37
2019-02-17T11:23:17.636Z,25.53
2019-02-17T11:25:45.107Z,22.93
2019-02-17T11:28:12.521Z,23.03
2019-02-17T11:30:40.199Z,23.10
2019-02-17T11:33:07.720Z,25.57
2019-02-17T11:35:35.116Z,20.43
2019-02-17T11:38:02.571Z,23.20
2019-02-17T11:40:29.936Z,24.27
2019-02-17T11:43:09.093Z,24.00
2019-02-17T11:45:36.692Z,22.13
2019-02-17T11:48:04.141Z,21.83
2019-02-17T11:50:34.846Z,22.90
2019-02-17T11:53:02.356Z,23.17
2019-02-17T11:55:29.752Z,23.90
2019-02-17T11:58:47.811Z,21.77
2019-02-17T12:01:15.311Z,23.50
2019-02-17T12:03:43.207Z,25.43
2019-02-17T12:06:10.704Z,23.37
2019-02-17T12:08:38.341Z,23.77
2019-02-17T12:11:08.671Z,25.40
2019-02-17T12:13:36.276Z,22.70
2019-02-17T12:16:12.952Z,24.97
2019-02-17T12:18:40.659Z,24.47
2019-02-17T12:21:33.451Z,25.13
2019-02-17T12:24:18.783Z,23.97
2019-02-17T12:27:09.566Z,21.50
2019-02-17T12:29:48.628Z,21.93
2019-02-17T12:32:17.491Z,25.63
2019-02-17T12:35:03.201Z,22.87
2019-02-17T12:37:30.720Z,22.23
2019-02-17T12:39:58.384Z,22.13
2019-02-17T12:42:26.111Z,22.30
2019-02-17T12:44:53.552Z,21.27
2019-02-17T12:47:21.032Z,23.13
2019-02-17T12:49:50.040Z,22.23
2019-02-17T12:52:17.501Z,23.40
2019-02-17T12:54:45.041Z,23.50
2019-02-17T12:57:12.571Z,21.53
2019-02-17T12:59:40.071Z,21.20
2019-02-17T13:02:07.931Z,23.67
2019-02-17T13:04:35.731Z,23.13
2019-02-17T13:07:03.212Z,21.60
2019-02-17T13:09:30.626Z,23.10
2019-02-17T13:11:58.036Z,22.87
2019-02-17T13:14:25.496Z,22.20
2019-02-17T13:16:53.006Z,21.80
2019-02-17T13:19:20.526Z,21.27
2019-02-17T13:21:47.945Z,21.37
2019-02-17T13:24:15.427Z,23.03
2019-02-17T13:26:42.881Z,22.10
2019-02-17T13:29:10.329Z,19.70
2019-02-17T13:31:37.732Z,22.27
2019-02-17T13:34:05.168Z,19.47
2019-02-17T13:36:32.795Z,22.50
2019-02-17T13:39:02.770Z,21.40
2019-02-17T13:41:30.162Z,19.57
2019-02-17T13:43:57.652Z,21.77
2019-02-17T13:46:25.119Z,20.87
2019-02-17T13:48:52.571Z,22.80
2019-02-17T13:51:37.185Z,19.13
2019-02-17T13:53:52.468Z,20.77
2019-02-17T13:56:19.976Z,20.77
2019-02-17T13:58:47.507Z,19.20
2019-02-17T14:01:15.266Z,21.33
2019-02-17T14:03:48.898Z,20.87
2019-02-17T14:06:12.580Z,20.47
2019-02-17T14:08:40.066Z,18.20
2019-02-17T14:11:07.627Z,21.27
2019-02-17T14:13:35.066Z,20.53
2019-02-17T14:16:04.832Z,21.00
2019-02-17T14:18:32.276Z,22.30
2019-02-17T14:20:59.772Z,20.00
2019-02-17T14:23:27.216Z,22.03
2019-02-17T14:25:54.691Z,21.87
2019-02-17T14:28:22.579Z,22.93
2019-02-17T14:30:49.952Z,22.07
2019-02-17T14:33:17.391Z,21.30
2019-02-17T14:35:44.916Z,21.63
2019-02-17T14:38:12.488Z,22.50
2019-02-17T14:40:42.205Z,20.67
2019-02-17T14:43:09.786Z,20.73
2019-02-17T14:45:37.321Z,22.07
2019-02-17T14:48:08.046Z,24.00
2019-02-17T14:50:35.582Z,19.47
2019-02-17T14:53:08.470Z,22.70
2019-02-17T14:55:39.644Z,19.87
2019-02-17T14:58:07.116Z,22.77
2019-02-17T15:00:34.593Z,21.47
2019-02-17T15:03:02.471Z,24.43
2019-02-17T15:05:29.931Z,23.03
2019-02-17T15:07:57.316Z,23.47
2019-02-17T15:10:24.795Z,20.93
2019-02-17T15:12:52.557Z,21.77
2019-02-17T15:15:20.057Z,21.30
2019-02-17T15:17:48.436Z,22.90
2019-02-17T15:20:21.377Z,25.40
2019-02-17T15:22:49.501Z,21.57
2019-02-17T15:25:20.456Z,20.33
2019-02-17T15:27:48.198Z,22.50
2019-02-17T15:30:17.885Z,22.50
2019-02-17T15:32:45.946Z,23.63
2019-02-17T15:35:14.146Z,21.87
2019-02-17T15:37:42.158Z,22.40
2019-02-17T15:40:31.701Z,27.43
2019-02-17T15:42:59.421Z,23.10
2019-02-17T15:45:27.467Z,23.73
2019-02-17T15:47:55.647Z,20.50
2019-02-17T15:50:30.740Z,21.50
2019-02-17T15:53:04.596Z,22.73
2019-02-17T15:55:38.381Z,22.80
2019-02-17T15:58:18.490Z,22.67
2019-02-17T16:00:47.151Z,25.07
2019-02-17T16:03:14.794Z,23.37
2019-02-17T16:05:43.291Z,21.53
2019-02-17T16:08:14.111Z,20.90
2019-02-17T16:10:45.625Z,22.73
2019-02-17T16:13:14.366Z,22.20
2019-02-17T16:15:45.526Z,23.00
2019-02-17T16:18:13.282Z,26.70
2019-02-17T16:20:58.136Z,22.50
2019-02-17T16:23:26.406Z,22.57
2019-02-17T16:26:03.907Z,22.07
2019-02-17T16:28:31.816Z,22.77
2019-02-17T16:30:59.856Z,23.67
2019-02-17T16:33:27.801Z,21.63
2019-02-17T16:35:57.942Z,22.37
2019-02-17T16:38:32.399Z,22.17
2019-02-17T16:41:00.950Z,23.50
2019-02-17T16:43:29.186Z,22.77
2019-02-17T16:45:57.681Z,22.53
2019-02-17T16:48:27.157Z,21.67
2019-02-17T16:50:55.127Z,23.33
2019-02-17T16:53:31.039Z,20.13
2019-02-17T16:56:05.950Z,22.20
2019-02-17T16:58:33.872Z,20.10
2019-02-17T17:01:08.406Z,22.23
2019-02-17T17:03:39.114Z,20.73
2019-02-17T17:06:19.240Z,23.37
2019-02-17T17:08:52.401Z,23.33
2019-02-17T17:11:21.705Z,23.90
2019-02-17T17:13:50.492Z,19.63
2019-02-17T17:16:19.175Z,20.23
2019-02-17T17:18:47.590Z,22.40
2019-02-17T17:21:22.215Z,20.53
2019-02-17T17:23:53.578Z,21.67
2019-02-17T17:26:24.355Z,20.57
2019-02-17T17:28:56.803Z,19.77
2019-02-17T17:31:33.360Z,18.37
2019-02-17T17:34:04.846Z,18.00
2019-02-17T17:36:36.247Z,22.20
2019-02-17T17:39:10.696Z,20.30
2019-02-17T17:41:39.526Z,18.73
2019-02-17T17:44:10.038Z,19.80
2019-02-17T17:46:39.641Z,22.47
2019-02-17T17:49:18.860Z,20.90
2019-02-17T17:51:43.226Z,25.23
2019-02-17T17:54:27.840Z,19.83
2019-02-17T17:57:05.496Z,21.33
2019-02-17T17:59:43.496Z,20.00
2019-02-17T18:02:18.107Z,18.97
2019-02-17T18:05:09.361Z,21.07
2019-02-17T18:07:45.975Z,19.80
2019-02-17T18:11:01.465Z,20.30
2019-02-17T18:12:57.160Z,20.37
2019-02-17T18:15:46.346Z,17.90
2019-02-17T18:18:32.615Z,19.30
2019-02-17T18:21:12.519Z,19.13
2019-02-17T18:23:48.267Z,19.37
2019-02-17T18:26:42.123Z,18.40
2019-02-17T18:29:27.420Z,16.90
2019-02-17T18:32:11.624Z,20.63
2019-02-17T18:37:53.825Z,21.27
2019-02-17T18:41:02.000Z,24.37
2019-02-17T18:43:30.752Z,22.00
2019-02-17T18:46:09.964Z,23.00
2019-02-17T18:49:07.290Z,20.53
2019-02-17T18:51:41.737Z,21.67
2019-02-17T18:54:30.412Z,24.73
2019-02-17T18:57:12.070Z,19.93
2019-02-17T18:59:49.219Z,17.97
2019-02-17T19:02:31.506Z,18.93
2019-02-17T19:05:05.529Z,22.23
2019-02-17T19:07:57.658Z,21.20
2019-02-17T19:10:34.754Z,21.13
2019-02-17T19:13:18.305Z,20.33
2019-02-17T19:41:17.100Z,15.50
2019-02-17T19:49:05.000Z,21.10
2019-02-17T20:15:39.310Z,14.67
2019-02-17T21:12:01.830Z,13.63
2019-02-17T21:22:53.092Z,13.57
2019-02-17T21:25:47.790Z,13.90
2019-02-17T21:29:42.002Z,13.87
2019-02-17T21:41:17.484Z,13.40
2019-02-17T21:52:57.243Z,14.73
2019-02-17T21:56:08.215Z,12.37
2019-02-17T21:59:24.900Z,12.30
2019-02-17T22:04:19.965Z,10.50
2019-02-17T22:05:14.428Z,11.07
2019-02-17T22:07:41.808Z,11.77
2019-02-17T22:10:10.006Z,11.03
2019-02-17T22:12:37.634Z,13.30
2019-02-17T22:15:09.100Z,10.07
2019-02-17T22:17:36.501Z,12.77
2019-02-17T22:20:07.464Z,13.00
2019-02-17T22:22:37.009Z,10.93
2019-02-17T22:25:04.646Z,12.03
2019-02-17T22:27:32.050Z,11.57
2019-02-17T22:29:59.483Z,10.33
2019-02-17T22:32:27.151Z,11.60
2019-02-17T22:34:54.636Z,12.07
2019-02-17T22:37:22.021Z,10.97
2019-02-17T22:39:49.547Z,9.07
2019-02-17T22:42:17.951Z,12.27
2019-02-17T22:44:45.371Z,11.07
2019-02-17T22:47:13.152Z,11.27
2019-02-17T22:49:40.571Z,12.97
2019-02-17T22:52:07.952Z,12.50
2019-02-17T22:54:35.486Z,14.17
2019-02-17T22:57:02.851Z,12.13
2019-02-17T22:59:30.270Z,14.13
2019-02-17T23:01:57.655Z,12.53
2019-02-17T23:04:25.501Z,14.43
2019-02-17T23:06:54.415Z,14.10
2019-02-17T23:09:22.407Z,13.77
2019-02-17T23:11:49.763Z,11.00
2019-02-17T23:14:17.193Z,10.67
2019-02-17T23:16:44.551Z,11.97
2019-02-17T23:19:11.996Z,12.17
2019-02-17T23:21:39.427Z,12.43
2019-02-17T23:24:06.841Z,12.13
2019-02-17T23:26:34.301Z,12.57
2019-02-17T23:29:01.701Z,12.10
2019-02-17T23:31:29.114Z,12.77
2019-02-17T23:33:56.496Z,14.50
2019-02-17T23:36:23.902Z,11.47
2019-02-17T23:38:51.296Z,11.70
2019-02-17T23:41:18.837Z,11.40
2019-02-17T23:43:46.217Z,10.97
2019-02-17T23:46:13.661Z,10.60
2019-02-17T23:48:41.071Z,14.97
2019-02-17T23:51:08.496Z,15.07
2019-02-17T23:53:36.818Z,13.27
2019-02-17T23:56:04.292Z,11.43
2019-02-17T23:58:31.667Z,15.23
